Time;durP1;ratioP1;P1;durP2;ratioP2;P2;SDS_P1;SDS_P2;PMS_P1;PMS_P2;Temp;Humidity;BMP_temperature;BMP_pressure;BME280_temperature;BME280_humidity;BME280_pressure;Samples;Min_cycle;Max_cycle;Signal;HPM_P1;HPM_P2
2022/08/09 00:00:57;;;;;;;2.45;0.85;;;;;;;15.21;70.22;101880.69;5056864;28;20033;-82
2022/08/09 00:03:23;;;;;;;2.40;0.90;;;;;;;15.19;70.44;101881.81;5042173;28;20037;-82
2022/08/09 00:05:49;;;;;;;5.80;0.82;;;;;;;15.13;70.53;101885.84;5048708;28;20032;-82
2022/08/09 00:08:15;;;;;;;2.30;0.80;;;;;;;15.15;70.63;101883.06;5052415;28;20485;-82
2022/08/09 00:10:41;;;;;;;3.30;0.80;;;;;;;15.13;70.75;101886.69;5041956;28;20029;-82
2022/08/09 00:13:08;;;;;;;3.42;1.25;;;;;;;15.10;70.78;101879.00;5081182;28;20072;-84
2022/08/09 00:15:34;;;;;;;3.90;1.10;;;;;;;15.08;71.20;101878.28;5039380;28;20464;-84
2022/08/09 00:18:00;;;;;;;3.17;1.40;;;;;;;15.05;71.52;101881.22;5065105;28;20136;-83
2022/08/09 00:20:26;;;;;;;4.68;1.02;;;;;;;14.98;71.73;101877.44;5043544;28;20393;-84
2022/08/09 00:22:52;;;;;;;4.38;1.10;;;;;;;14.98;71.96;101885.44;5042988;28;20067;-82
2022/08/09 00:25:18;;;;;;;3.17;1.20;;;;;;;14.97;72.08;101881.91;5024542;28;20045;-82
2022/08/09 00:27:44;;;;;;;2.58;1.10;;;;;;;14.95;72.28;101873.25;5056372;28;20083;-82
2022/08/09 00:30:10;;;;;;;1.85;1.15;;;;;;;14.98;72.16;101877.44;5074084;28;20083;-82
2022/08/09 00:32:36;;;;;;;3.17;1.23;;;;;;;15.01;72.00;101882.50;5043221;28;20587;-82
2022/08/09 00:35:02;;;;;;;2.33;1.13;;;;;;;14.95;71.60;101878.56;5040850;28;20091;-82
2022/08/09 00:37:27;;;;;;;3.40;1.10;;;;;;;14.83;71.88;101879.66;5034001;28;20044;-83
2022/08/09 00:39:53;;;;;;;1.73;0.90;;;;;;;14.80;71.83;101875.44;5034588;28;20103;-82
2022/08/09 00:42:19;;;;;;;1.20;1.10;;;;;;;14.76;71.82;101879.34;5039363;28;20337;-84
2022/08/09 00:44:45;;;;;;;4.57;1.40;;;;;;;14.82;71.63;101875.31;5051964;28;20568;-83
2022/08/09 00:47:11;;;;;;;2.38;1.00;;;;;;;14.81;71.67;101873.63;5045061;28;20032;-82
2022/08/09 00:49:37;;;;;;;4.15;1.00;;;;;;;14.74;71.54;101870.66;5044648;28;20044;-82
2022/08/09 00:52:05;;;;;;;1.60;0.90;;;;;;;14.59;71.77;101864.84;5048326;28;20111;-83
2022/08/09 00:54:32;;;;;;;3.53;0.90;;;;;;;14.54;71.79;101869.75;5049176;28;20029;-83
2022/08/09 00:56:58;;;;;;;1.85;1.00;;;;;;;14.47;71.96;101866.78;5042803;28;20025;-82
2022/08/09 00:59:24;;;;;;;4.25;1.00;;;;;;;14.47;71.88;101864.97;5045181;28;20037;-82
2022/08/09 01:01:51;;;;;;;3.40;1.10;;;;;;;14.38;72.00;101863.94;5051982;28;20040;-82
2022/08/09 01:04:48;;;;;;;4.20;1.40;;;;;;;14.32;72.01;101864.50;5063052;28;20041;-82
2022/08/09 01:07:20;;;;;;;3.10;1.00;;;;;;;14.26;72.20;101863.22;5035850;28;20739;-81
2022/08/09 01:10:08;;;;;;;3.13;1.05;;;;;;;14.14;72.43;101865.13;5048046;28;20473;-82
2022/08/09 01:12:42;;;;;;;2.95;1.13;;;;;;;14.07;72.39;101869.28;5043899;28;20072;-83
2022/08/09 01:15:11;;;;;;;2.28;0.70;;;;;;;14.07;72.43;101861.31;5024515;28;20546;-83
2022/08/09 01:17:42;;;;;;;1.65;0.93;;;;;;;14.10;72.06;101858.38;5049708;28;20065;-83
2022/08/09 01:20:13;;;;;;;2.92;0.80;;;;;;;14.10;71.88;101858.38;5074362;28;20025;-82
2022/08/09 01:23:02;;;;;;;1.52;1.00;;;;;;;13.98;71.74;101862.94;5046380;28;20485;-82
2022/08/09 01:25:49;;;;;;;2.13;0.90;;;;;;;13.91;72.16;101853.81;5038941;28;20039;-82
2022/08/09 01:28:16;;;;;;;3.13;1.02;;;;;;;13.85;72.20;101857.00;5030914;28;20060;-82
2022/08/09 01:30:43;;;;;;;4.97;1.40;;;;;;;13.89;72.55;101861.91;5077432;28;20030;-82
2022/08/09 01:33:10;;;;;;;3.10;1.63;;;;;;;13.92;72.91;101855.50;5029264;28;20040;-82
2022/08/09 01:35:47;;;;;;;3.83;1.42;;;;;;;13.96;72.87;101854.28;5070211;28;20051;-82
2022/08/09 01:38:17;;;;;;;2.75;1.20;;;;;;;13.98;72.98;101859.44;5029883;28;20041;-82
2022/08/09 01:40:48;;;;;;;6.18;1.58;;;;;;;13.92;72.83;101852.84;5047016;28;20033;-82
2022/08/09 01:43:15;;;;;;;3.22;1.10;;;;;;;13.81;72.75;101851.09;5043556;28;20110;-81
2022/08/09 01:45:43;;;;;;;1.42;0.90;;;;;;;13.67;72.73;101852.28;5054577;28;20112;-82
2022/08/09 01:48:09;;;;;;;3.35;1.25;;;;;;;13.67;72.97;101857.59;5054574;28;20569;-83
2022/08/09 01:50:37;;;;;;;2.45;1.00;;;;;;;13.62;73.22;101851.81;5045921;28;20041;-83
2022/08/09 01:53:05;;;;;;;1.33;0.82;;;;;;;13.57;73.02;101854.84;5077389;28;20029;-82
2022/08/09 01:55:33;;;;;;;10.23;0.90;;;;;;;13.50;73.26;101858.97;5051247;28;20052;-83
2022/08/09 01:58:00;;;;;;;2.53;0.70;;;;;;;13.46;72.85;101857.53;5050922;28;20037;-82
2022/08/09 02:00:28;;;;;;;1.80;0.80;;;;;;;13.49;72.51;101858.13;5039793;28;20025;-82
2022/08/09 02:02:56;;;;;;;2.63;1.00;;;;;;;13.50;72.19;101857.22;5081479;28;20048;-82
2022/08/09 02:05:23;;;;;;;1.95;0.80;;;;;;;13.51;71.93;101866.84;5050830;28;20425;-82
2022/08/09 02:07:54;;;;;;;6.05;0.75;;;;;;;13.48;72.00;101860.91;5048865;28;20036;-82
2022/08/09 02:10:24;;;;;;;1.67;1.00;;;;;;;13.46;72.04;101865.50;5044561;28;20037;-82
2022/08/09 02:12:54;;;;;;;1.20;1.00;;;;;;;13.37;72.40;101853.84;5048830;28;20124;-81
2022/08/09 02:15:23;;;;;;;1.85;1.02;;;;;;;13.31;72.43;101863.19;5045992;28;20078;-82
2022/08/09 02:17:52;;;;;;;2.95;1.25;;;;;;;13.26;72.57;101860.91;5040484;28;20032;-82
2022/08/09 02:20:19;;;;;;;4.63;1.40;;;;;;;13.22;72.76;101856.81;5079747;28;20359;-82
2022/08/09 02:23:02;;;;;;;1.52;0.90;;;;;;;13.14;72.88;101868.06;5049681;28;20098;-82
2022/08/09 02:25:33;;;;;;;2.78;1.27;;;;;;;13.14;73.34;101869.84;5056273;28;20068;-82
2022/08/09 02:28:22;;;;;;;3.10;1.00;;;;;;;13.06;72.92;101864.38;5046792;28;20068;-82
2022/08/09 02:30:57;;;;;;;3.45;1.10;;;;;;;13.02;73.35;101864.63;5046981;28;20424;-82
2022/08/09 02:33:25;;;;;;;1.90;1.02;;;;;;;12.97;73.43;101868.59;5032916;28;20037;-82
2022/08/09 02:35:57;;;;;;;3.22;0.93;;;;;;;12.94;73.87;101867.03;5056593;28;20032;-82
2022/08/09 02:38:29;;;;;;;1.30;1.08;;;;;;;12.90;73.51;101866.44;5064571;28;20029;-82
2022/08/09 02:41:07;;;;;;;2.13;1.30;;;;;;;12.91;73.48;101862.00;5081778;28;20025;-82
2022/08/09 02:43:35;;;;;;;12.45;2.17;;;;;;;12.84;73.62;101860.78;5063990;28;20032;-82
2022/08/09 02:46:04;;;;;;;11.05;3.40;;;;;;;12.79;74.00;101855.84;5052607;28;20450;-82
2022/08/09 02:48:33;;;;;;;12.63;2.42;;;;;;;12.84;74.37;101855.47;5095432;28;20537;-82
2022/08/09 02:51:01;;;;;;;15.20;3.15;;;;;;;12.85;74.07;101855.34;5068889;28;20034;-82
2022/08/09 02:53:33;;;;;;;9.13;2.70;;;;;;;12.87;74.30;101853.41;5052309;28;20469;-83
2022/08/09 02:56:02;;;;;;;10.38;4.32;;;;;;;12.86;74.38;101856.19;5072139;28;20085;-83
2022/08/09 02:58:30;;;;;;;8.35;2.90;;;;;;;12.93;74.24;101852.09;5087201;28;20037;-81
2022/08/09 03:00:58;;;;;;;10.77;2.80;;;;;;;12.95;74.42;101854.63;5054868;28;20418;-82
2022/08/09 03:03:26;;;;;;;7.05;2.60;;;;;;;12.97;74.29;101850.88;5037370;28;20692;-82
2022/08/09 03:05:55;;;;;;;9.18;2.42;;;;;;;12.99;74.39;101859.56;5052073;28;20110;-82
2022/08/09 03:08:23;;;;;;;8.35;2.67;;;;;;;13.01;74.48;101868.22;5067935;28;20436;-82
2022/08/09 03:10:50;;;;;;;3.50;1.80;;;;;;;13.05;73.92;101868.81;5047520;28;20517;-82
2022/08/09 03:13:19;;;;;;;5.25;1.70;;;;;;;13.02;73.72;101872.56;5050215;28;20083;-82
2022/08/09 03:15:45;;;;;;;2.95;1.67;;;;;;;12.93;73.91;101875.97;5048855;28;20047;-81
2022/08/09 03:18:13;;;;;;;5.75;1.60;;;;;;;12.88;74.12;101872.84;5047176;28;20078;-82
2022/08/09 03:20:41;;;;;;;3.15;1.45;;;;;;;12.84;73.87;101872.25;5084296;28;20552;-82
2022/08/09 03:23:08;;;;;;;6.30;1.77;;;;;;;12.82;74.06;101868.88;5040790;28;20480;-81
2022/08/09 03:25:35;;;;;;;3.97;1.77;;;;;;;12.83;73.92;101864.41;5031706;28;20120;-82
2022/08/09 03:28:04;;;;;;;3.67;1.67;;;;;;;12.86;73.55;101872.13;5054710;28;20024;-82
2022/08/09 03:30:31;;;;;;;3.97;1.60;;;;;;;12.86;73.49;101866.81;5043212;28;20042;-82
2022/08/09 03:32:59;;;;;;;7.85;2.10;;;;;;;12.89;73.76;101862.13;5054131;28;20112;-81
2022/08/09 03:35:25;;;;;;;9.20;2.42;;;;;;;12.92;73.72;101866.31;5056212;28;20032;-82
2022/08/09 03:37:51;;;;;;;3.35;1.98;;;;;;;12.93;73.61;101862.72;5060111;28;20025;-82
2022/08/09 03:40:17;;;;;;;4.75;2.00;;;;;;;12.83;73.50;101869.72;5090725;28;20504;-82
2022/08/09 03:42:43;;;;;;;6.45;1.83;;;;;;;12.67;73.84;101870.09;5051383;28;20033;-82
2022/08/09 03:45:10;;;;;;;6.55;1.88;;;;;;;12.61;74.03;101863.50;5052305;28;20433;-81
2022/08/09 03:47:36;;;;;;;3.33;2.28;;;;;;;12.58;73.92;101866.38;5056491;28;20040;-82
2022/08/09 03:50:05;;;;;;;4.80;1.95;;;;;;;12.59;74.00;101860.09;5068025;28;20032;-81
2022/08/09 03:52:32;;;;;;;6.05;2.05;;;;;;;12.63;74.02;101858.88;5053922;28;20047;-82
2022/08/09 03:55:02;;;;;;;3.17;1.83;;;;;;;12.67;73.72;101856.84;5067608;28;20029;-82
2022/08/09 03:57:29;;;;;;;6.35;2.20;;;;;;;12.63;73.70;101851.78;5042618;28;20033;-82
2022/08/09 03:59:55;;;;;;;4.65;1.77;;;;;;;12.56;73.60;101855.06;5059287;28;20083;-82
2022/08/09 04:02:24;;;;;;;6.18;2.10;;;;;;;12.44;73.87;101851.59;5049215;28;20553;-81
2022/08/09 04:04:51;;;;;;;6.35;1.70;;;;;;;12.35;74.13;101845.19;5049410;28;20111;-82
2022/08/09 04:07:17;;;;;;;9.77;1.80;;;;;;;12.38;74.15;101848.44;5056278;28;20032;-83
2022/08/09 04:09:42;;;;;;;6.90;1.58;;;;;;;12.42;74.39;101848.19;5041022;28;20595;-83
2022/08/09 04:12:08;;;;;;;3.78;1.88;;;;;;;12.44;74.24;101844.44;5056724;28;20088;-83
2022/08/09 04:14:38;;;;;;;7.20;1.90;;;;;;;12.48;74.16;101842.41;5052634;28;20497;-83
2022/08/09 04:17:05;;;;;;;3.83;1.52;;;;;;;12.49;74.00;101838.78;5050425;28;20040;-83
2022/08/09 04:19:31;;;;;;;4.35;1.63;;;;;;;12.47;74.07;101846.03;5053814;28;20082;-82
2022/08/09 04:21:58;;;;;;;4.10;1.65;;;;;;;12.40;73.78;101843.88;5051135;28;20370;-82
2022/08/09 04:24:25;;;;;;;1.98;1.35;;;;;;;12.39;73.73;101841.34;5051649;28;20048;-82
2022/08/09 04:26:52;;;;;;;2.28;1.50;;;;;;;12.42;73.69;101841.09;5052575;28;20099;-82
2022/08/09 04:29:18;;;;;;;2.15;1.50;;;;;;;12.39;73.90;101841.34;5055920;28;20073;-82
2022/08/09 04:31:44;;;;;;;3.33;1.52;;;;;;;12.34;74.32;101843.50;5067907;28;20112;-82
2022/08/09 04:34:09;;;;;;;3.50;1.70;;;;;;;12.35;74.33;101850.47;5045811;28;20112;-82
2022/08/09 04:36:35;;;;;;;3.42;1.83;;;;;;;12.37;74.42;101852.06;5056019;28;20059;-82
2022/08/09 04:39:07;;;;;;;2.38;1.83;;;;;;;12.41;74.11;101855.31;5048500;28;20048;-82
2022/08/09 04:41:33;;;;;;;2.13;1.40;;;;;;;12.38;74.50;101856.41;5054106;28;20066;-82
2022/08/09 04:44:03;;;;;;;3.13;1.73;;;;;;;12.38;74.64;101860.84;5050942;28;20064;-82
2022/08/09 04:46:29;;;;;;;2.10;1.90;;;;;;;12.36;74.55;101860.16;5050648;28;20036;-82
2022/08/09 04:48:55;;;;;;;3.70;1.80;;;;;;;12.32;74.82;101858.69;5047811;28;20029;-82
2022/08/09 04:51:20;;;;;;;3.53;1.60;;;;;;;12.22;74.84;101855.91;5046691;28;20036;-82
2022/08/09 04:53:46;;;;;;;5.10;1.90;;;;;;;12.15;75.13;101858.22;5066593;28;20156;-82
2022/08/09 04:56:13;;;;;;;1.63;1.52;;;;;;;12.11;75.41;101859.41;5048338;28;20029;-81
2022/08/09 04:58:38;;;;;;;1.30;1.20;;;;;;;12.15;75.34;101861.69;5049399;28;20034;-81
2022/08/09 05:01:05;;;;;;;2.28;1.50;;;;;;;12.14;75.19;101856.50;5030072;28;20119;-82
2022/08/09 05:03:30;;;;;;;2.22;1.80;;;;;;;12.06;75.18;101850.91;5051867;28;20072;-82
2022/08/09 05:05:56;;;;;;;2.65;1.48;;;;;;;12.00;75.24;101854.91;5054756;28;20464;-82
2022/08/09 05:08:22;;;;;;;3.00;1.60;;;;;;;11.96;75.42;101859.59;5051687;28;20036;-81
2022/08/09 05:10:48;;;;;;;3.30;1.88;;;;;;;11.89;75.74;101861.88;5063008;28;20032;-82
2022/08/09 05:13:14;;;;;;;1.30;1.20;;;;;;;11.88;75.94;101862.00;5064296;28;20050;-82
2022/08/09 05:15:40;;;;;;;2.95;1.50;;;;;;;11.87;75.76;101863.81;5073227;28;20036;-81
2022/08/09 05:18:06;;;;;;;1.63;1.52;;;;;;;11.85;75.59;101859.59;5058826;28;20124;-81
2022/08/09 05:20:32;;;;;;;1.38;1.20;;;;;;;11.89;75.73;101868.97;5056597;28;20119;-82
2022/08/09 05:22:58;;;;;;;4.80;2.30;;;;;;;11.97;75.52;101874.53;5063962;28;20032;-82
2022/08/09 05:25:24;;;;;;;3.55;2.00;;;;;;;11.98;75.40;101870.91;5070656;28;20033;-81
2022/08/09 05:27:49;;;;;;;2.35;2.10;;;;;;;12.03;75.33;101873.22;5056321;28;20083;-81
2022/08/09 05:30:16;;;;;;;4.70;3.72;;;;;;;12.06;75.22;101866.81;5032416;28;20127;-81
2022/08/09 05:32:46;;;;;;;5.85;2.53;;;;;;;12.11;75.34;101870.00;5046330;28;20027;-83
2022/08/09 05:35:12;;;;;;;3.45;1.65;;;;;;;12.11;75.77;101872.66;5050584;28;20028;-83
2022/08/09 05:37:38;;;;;;;7.63;2.92;;;;;;;12.04;75.29;101873.09;5042224;28;20037;-82
2022/08/09 05:40:06;;;;;;;4.93;2.25;;;;;;;11.95;76.18;101871.16;5040722;28;20063;-82
2022/08/09 05:42:32;;;;;;;3.72;2.17;;;;;;;11.94;76.54;101876.56;5039868;28;20532;-82
2022/08/09 05:44:59;;;;;;;2.50;2.30;;;;;;;11.91;76.22;101873.19;5057539;28;20055;-82
2022/08/09 05:47:26;;;;;;;3.92;2.33;;;;;;;11.92;76.77;101879.34;5075021;28;20997;-83
2022/08/09 05:49:53;;;;;;;2.50;2.30;;;;;;;11.94;76.70;101879.22;5052587;28;20029;-82
2022/08/09 05:52:20;;;;;;;4.68;2.78;;;;;;;11.96;76.96;101880.78;5077786;28;20056;-82
2022/08/09 05:54:46;;;;;;;2.38;2.17;;;;;;;11.98;76.99;101883.31;5021380;28;20036;-82
2022/08/09 05:57:12;;;;;;;2.00;1.90;;;;;;;12.01;77.00;101883.94;5050364;28;20025;-82
2022/08/09 05:59:38;;;;;;;1.70;1.60;;;;;;;12.03;76.93;101883.81;5056533;28;20102;-83
2022/08/09 06:02:04;;;;;;;1.63;1.52;;;;;;;12.09;76.87;101893.16;5052172;28;20384;-81
2022/08/09 06:04:30;;;;;;;1.73;1.52;;;;;;;12.09;76.46;101895.81;5046807;28;20037;-82
2022/08/09 06:06:56;;;;;;;1.10;1.10;;;;;;;12.18;76.51;101897.72;5055852;28;20028;-82
2022/08/09 06:09:22;;;;;;;1.30;1.30;;;;;;;12.19;76.34;101893.25;5056580;28;20048;-82
2022/08/09 06:11:48;;;;;;;1.35;1.25;;;;;;;12.12;76.68;101898.22;5048773;28;20032;-82
2022/08/09 06:14:16;;;;;;;1.60;1.20;;;;;;;12.10;77.19;101897.47;5061031;28;20044;-82
2022/08/09 06:16:42;;;;;;;4.38;1.45;;;;;;;12.14;77.17;101902.41;5052734;28;20040;-83
2022/08/09 06:19:08;;;;;;;1.90;1.80;;;;;;;12.20;77.11;101901.09;5032382;28;20034;-83
2022/08/09 06:21:34;;;;;;;2.00;1.90;;;;;;;12.20;77.26;101901.09;5051805;28;20033;-82
2022/08/09 06:24:00;;;;;;;4.75;2.25;;;;;;;12.19;77.86;101904.72;5053401;28;20504;-82
2022/08/09 06:26:26;;;;;;;2.55;2.10;;;;;;;12.17;78.00;101911.94;5061885;28;20041;-82
2022/08/09 06:28:54;;;;;;;1.80;1.70;;;;;;;12.11;78.58;101915.06;5050333;28;20389;-82
2022/08/09 06:31:20;;;;;;;2.05;1.92;;;;;;;12.07;79.12;101908.28;5051591;28;20481;-82
2022/08/09 06:33:45;;;;;;;1.60;1.50;;;;;;;12.12;79.31;101916.75;5059874;28;20044;-83
2022/08/09 06:36:11;;;;;;;1.70;1.60;;;;;;;12.22;79.84;101908.91;5053016;28;20124;-83
2022/08/09 06:38:37;;;;;;;1.20;1.10;;;;;;;12.34;79.55;101913.25;5078412;28;20040;-82
2022/08/09 06:41:04;;;;;;;0.65;0.65;;;;;;;12.46;79.80;101914.13;5056535;28;20029;-82
2022/08/09 06:43:31;;;;;;;2.75;0.80;;;;;;;12.57;79.81;101915.06;5047225;28;20802;-83
2022/08/09 06:45:57;;;;;;;0.73;0.60;;;;;;;12.69;79.51;101922.09;5043399;28;20494;-82
2022/08/09 06:48:23;;;;;;;4.47;0.95;;;;;;;12.80;79.67;101925.69;5072370;28;20482;-81
2022/08/09 06:50:49;;;;;;;0.70;0.70;;;;;;;12.89;79.73;101927.59;5044496;28;21178;-82
2022/08/09 06:53:15;;;;;;;0.82;0.73;;;;;;;12.98;79.77;101926.84;5044525;28;20160;-81
2022/08/09 06:55:41;;;;;;;1.23;0.98;;;;;;;13.06;79.40;101931.53;5051140;28;20037;-81
2022/08/09 06:58:07;;;;;;;1.13;1.00;;;;;;;13.14;79.52;101922.94;5065973;28;20036;-81
2022/08/09 07:00:34;;;;;;;0.80;0.80;;;;;;;13.23;79.69;101929.34;5056273;28;20028;-81
2022/08/09 07:03:01;;;;;;;1.25;0.90;;;;;;;13.32;80.17;101941.88;5038499;28;20033;-81
2022/08/09 07:05:27;;;;;;;1.95;0.90;;;;;;;13.40;80.24;101942.09;5044173;28;20037;-82
2022/08/09 07:07:56;;;;;;;2.33;0.90;;;;;;;13.48;80.52;101933.50;5057023;28;20029;-82
2022/08/09 07:10:22;;;;;;;1.02;0.93;;;;;;;13.55;80.98;101940.97;5053076;28;20033;-81
2022/08/09 07:12:49;;;;;;;1.25;1.00;;;;;;;13.59;81.10;101937.94;5042562;28;20052;-82
2022/08/09 07:15:15;;;;;;;1.58;1.27;;;;;;;13.66;81.12;101930.31;5046211;28;20041;-83
2022/08/09 07:17:41;;;;;;;1.23;1.13;;;;;;;13.80;81.09;101936.25;5061032;28;20489;-82
2022/08/09 07:20:07;;;;;;;1.73;0.90;;;;;;;13.88;81.21;101939.13;5044862;28;20029;-82
2022/08/09 07:22:33;;;;;;;2.35;1.30;;;;;;;13.96;81.38;101934.00;5039289;28;20033;-82
2022/08/09 07:25:03;;;;;;;1.92;1.38;;;;;;;14.09;81.78;101939.13;5047443;28;20029;-82
2022/08/09 07:27:29;;;;;;;2.97;1.30;;;;;;;14.32;82.43;101930.13;5051251;28;20041;-82
2022/08/09 07:29:55;;;;;;;1.77;1.38;;;;;;;14.64;82.59;101930.00;5050786;28;20033;-81
2022/08/09 07:32:21;;;;;;;4.03;1.50;;;;;;;14.98;82.53;101925.38;5082952;28;20074;-81
2022/08/09 07:34:47;;;;;;;5.03;1.40;;;;;;;15.37;82.59;101924.56;5049830;28;20111;-82
2022/08/09 07:37:13;;;;;;;2.25;1.20;;;;;;;15.66;81.93;101923.72;5050646;28;20029;-81
2022/08/09 07:39:39;;;;;;;3.85;1.90;;;;;;;15.93;81.36;101927.47;5077283;28;20505;-81
2022/08/09 07:42:05;;;;;;;1.50;1.40;;;;;;;16.21;80.70;101921.41;5042188;28;20102;-82
2022/08/09 07:44:31;;;;;;;3.33;1.30;;;;;;;16.41;80.08;101916.00;5048127;28;20040;-82
2022/08/09 07:46:57;;;;;;;2.75;1.65;;;;;;;16.62;79.56;101910.44;5051018;28;21010;-83
2022/08/09 07:49:23;;;;;;;1.75;1.40;;;;;;;16.89;78.99;101913.22;5049905;28;20036;-82
2022/08/09 07:51:49;;;;;;;2.13;1.40;;;;;;;17.13;78.28;101923.38;5045933;28;20033;-82
2022/08/09 07:54:15;;;;;;;5.15;2.15;;;;;;;17.33;77.60;101915.19;5039864;28;20047;-82
2022/08/09 07:56:41;;;;;;;4.18;2.00;;;;;;;17.52;76.83;101916.84;5045618;28;20040;-82
2022/08/09 07:59:07;;;;;;;4.07;1.60;;;;;;;17.62;76.47;101914.09;5050739;28;20043;-81
2022/08/09 08:01:34;;;;;;;2.80;1.50;;;;;;;17.72;76.27;101919.38;5048337;28;20035;-81
2022/08/09 08:04:01;;;;;;;3.92;1.45;;;;;;;17.80;76.08;101918.59;5045553;28;20043;-81
2022/08/09 08:06:28;;;;;;;4.93;1.60;;;;;;;17.80;76.10;101911.41;5047201;28;20056;-82
2022/08/09 08:08:54;;;;;;;4.82;1.58;;;;;;;17.83;75.89;101915.59;5047737;28;20033;-82
2022/08/09 08:11:20;;;;;;;1.55;1.40;;;;;;;17.83;75.94;101913.78;5048247;28;20095;-82
2022/08/09 08:13:46;;;;;;;2.85;1.50;;;;;;;17.83;75.92;101913.78;5048830;28;20059;-83
2022/08/09 08:16:12;;;;;;;2.40;1.45;;;;;;;17.84;76.26;101914.59;5044680;28;20025;-82
2022/08/09 08:18:37;;;;;;;3.90;1.42;;;;;;;17.84;76.50;101904.75;5043322;28;20037;-82
2022/08/09 08:21:03;;;;;;;2.17;1.50;;;;;;;17.90;76.47;101907.78;5052078;28;21542;-81
2022/08/09 08:23:29;;;;;;;4.10;1.52;;;;;;;17.92;76.40;101911.97;5045695;28;20401;-83
2022/08/09 08:25:55;;;;;;;2.30;1.10;;;;;;;17.93;76.39;101905.63;5031674;28;20032;-83
2022/08/09 08:28:22;;;;;;;3.88;1.08;;;;;;;17.96;76.31;101904.47;5048336;28;20460;-81
2022/08/09 08:30:47;;;;;;;4.60;1.27;;;;;;;18.03;76.38;101904.69;5044462;28;20125;-81
2022/08/09 08:33:14;;;;;;;1.50;0.82;;;;;;;18.09;76.29;101909.41;5048138;28;20577;-81
2022/08/09 08:35:40;;;;;;;3.25;1.27;;;;;;;18.11;76.28;101899.38;5054154;28;20033;-82
2022/08/09 08:38:06;;;;;;;4.60;0.80;;;;;;;18.15;76.17;101902.63;5048593;28;20056;-81
2022/08/09 08:40:32;;;;;;;2.05;0.90;;;;;;;18.20;76.14;101911.81;5047553;28;20062;-81
2022/08/09 08:42:59;;;;;;;2.75;1.02;;;;;;;18.20;76.13;101903.78;5022383;28;20723;-83
2022/08/09 08:45:32;;;;;;;6.38;1.20;;;;;;;18.27;75.94;101914.72;5050170;28;20377;-83
2022/08/09 08:47:58;;;;;;;2.67;1.10;;;;;;;18.33;75.90;101906.03;5045103;28;20041;-81
2022/08/09 08:50:24;;;;;;;4.47;0.77;;;;;;;18.38;75.49;101900.22;5062014;28;20097;-82
2022/08/09 08:52:51;;;;;;;4.53;0.70;;;;;;;18.46;75.26;101910.09;5084819;28;20045;-81
2022/08/09 08:55:18;;;;;;;2.17;0.63;;;;;;;18.55;74.73;101898.47;5022550;28;20025;-81
2022/08/09 08:57:44;;;;;;;5.00;1.50;;;;;;;18.65;74.41;101898.31;5047100;28;20056;-80
2022/08/09 09:00:12;;;;;;;2.17;0.70;;;;;;;18.76;74.00;101901.69;5042550;28;20032;-83
2022/08/09 09:02:39;;;;;;;1.60;0.57;;;;;;;18.85;73.46;101900.72;5049472;28;20032;-82
2022/08/09 09:05:06;;;;;;;1.25;0.60;;;;;;;18.88;72.73;101899.53;5061905;28;20036;-83
2022/08/09 09:07:34;;;;;;;3.17;0.73;;;;;;;18.90;72.01;101895.72;5050137;28;20065;-82
2022/08/09 09:10:02;;;;;;;4.28;0.85;;;;;;;18.99;71.53;101898.38;5052374;28;20036;-82
2022/08/09 09:12:30;;;;;;;1.42;0.52;;;;;;;19.04;71.15;101890.69;5052828;28;20041;-82
2022/08/09 09:14:58;;;;;;;1.73;0.68;;;;;;;19.13;70.95;101899.63;5052140;28;20033;-82
2022/08/09 09:17:23;;;;;;;5.40;0.82;;;;;;;19.19;70.73;101897.09;5052474;28;20028;-82
2022/08/09 09:19:51;;;;;;;3.67;0.75;;;;;;;19.30;70.94;101898.63;5050824;28;20034;-81
2022/08/09 09:22:18;;;;;;;1.73;0.50;;;;;;;19.39;70.71;101904.00;5018907;28;20576;-83
2022/08/09 09:24:49;;;;;;;4.53;0.70;;;;;;;19.44;70.93;101912.38;5063198;28;20040;-83
2022/08/09 09:27:20;;;;;;;3.97;0.68;;;;;;;19.46;70.66;101905.81;5035534;28;20116;-82
2022/08/09 09:29:46;;;;;;;3.25;0.50;;;;;;;19.53;70.38;101907.84;5051403;28;20068;-83
2022/08/09 09:32:17;;;;;;;3.10;0.52;;;;;;;19.59;70.44;101901.78;5047179;28;20055;-83
2022/08/09 09:35:01;;;;;;;2.42;0.65;;;;;;;19.62;70.10;101897.97;5050423;28;20029;-83
2022/08/09 09:37:29;;;;;;;3.40;0.60;;;;;;;19.71;69.92;101891.56;5043277;28;20037;-83
2022/08/09 09:39:55;;;;;;;3.60;0.77;;;;;;;19.76;69.96;101899.97;5042148;28;20029;-83
2022/08/09 09:42:24;;;;;;;6.20;1.10;;;;;;;19.81;69.91;101894.91;5063810;28;20021;-82
2022/08/09 09:44:55;;;;;;;5.30;0.70;;;;;;;19.87;69.60;101892.53;5049722;28;20087;-81
2022/08/09 09:47:21;;;;;;;3.63;0.50;;;;;;;19.90;69.41;101885.00;5056148;28;20024;-82
2022/08/09 09:49:53;;;;;;;2.92;0.75;;;;;;;20.03;68.72;101886.34;5057082;28;20504;-81
2022/08/09 09:52:20;;;;;;;5.53;0.70;;;;;;;20.12;68.19;101890.66;5059311;28;20482;-83
2022/08/09 09:54:46;;;;;;;14.35;0.65;;;;;;;20.22;67.61;101882.41;5056534;28;20406;-83
2022/08/09 09:57:20;;;;;;;13.80;1.13;;;;;;;20.29;66.92;101886.06;5054613;28;20033;-82
2022/08/09 09:59:48;;;;;;;2.83;0.77;;;;;;;20.40;66.66;101881.34;5045906;28;20028;-82
2022/08/09 10:02:16;;;;;;;4.55;0.52;;;;;;;20.47;65.82;101871.56;5059551;28;20032;-83
2022/08/09 10:04:42;;;;;;;1.58;0.50;;;;;;;20.61;64.97;101886.09;5026764;28;20088;-83
2022/08/09 10:07:25;;;;;;;0.82;0.40;;;;;;;20.65;63.77;101882.06;5045156;28;20576;-83
2022/08/09 10:09:54;;;;;;;4.50;0.50;;;;;;;20.70;63.93;101878.84;5040026;28;20045;-83
2022/08/09 10:12:31;;;;;;;3.05;0.50;;;;;;;20.80;63.51;101884.81;5051864;28;20029;-83
2022/08/09 10:15:10;;;;;;;4.32;0.40;;;;;;;20.86;62.63;101875.22;5047611;28;20055;-83
2022/08/09 10:17:37;;;;;;;3.40;0.50;;;;;;;20.97;62.73;101878.53;5046172;28;20647;-82
2022/08/09 10:20:06;;;;;;;2.47;0.47;;;;;;;21.01;62.47;101877.16;5057348;28;20115;-82
2022/08/09 10:22:35;;;;;;;4.07;0.70;;;;;;;21.04;62.02;101880.31;5053431;28;20112;-82
2022/08/09 10:25:04;;;;;;;2.67;0.40;;;;;;;21.09;61.73;101878.97;5040292;28;20032;-82
2022/08/09 10:27:31;;;;;;;3.47;0.60;;;;;;;21.12;61.27;101879.41;5053367;28;20457;-82
2022/08/09 10:30:02;;;;;;;0.75;0.32;;;;;;;21.19;60.65;101887.59;5083390;28;20041;-82
2022/08/09 10:32:28;;;;;;;2.47;0.50;;;;;;;21.28;60.49;101891.06;5047280;28;20040;-82
2022/08/09 10:34:55;;;;;;;2.75;0.60;;;;;;;21.35;60.46;101883.13;5058160;28;20059;-81
2022/08/09 10:37:22;;;;;;;2.13;0.40;;;;;;;21.42;59.95;101884.06;5052525;28;20098;-83
2022/08/09 10:39:48;;;;;;;1.80;0.38;;;;;;;21.51;59.54;101882.13;5040392;28;20032;-83
2022/08/09 10:42:14;;;;;;;2.95;0.40;;;;;;;21.58;58.71;101884.94;5055305;28;20496;-81
2022/08/09 10:45:06;;;;;;;1.40;0.47;;;;;;;21.63;57.89;101872.59;5050484;28;20041;-82
2022/08/09 10:47:53;;;;;;;1.70;0.43;;;;;;;21.74;57.50;101878.56;5048352;28;20041;-82
2022/08/09 10:51:11;;;;;;;4.00;0.90;;;;;;;21.80;56.51;101870.59;5050888;28;20025;-82
2022/08/09 10:53:59;;;;;;;2.50;0.30;;;;;;;21.88;54.80;101863.47;5025559;28;20766;-82
2022/08/09 10:56:29;;;;;;;2.00;0.47;;;;;;;21.92;55.76;101867.44;5048665;28;20450;-82
2022/08/09 10:58:58;;;;;;;1.65;0.40;;;;;;;21.98;54.83;101865.91;5057392;28;20036;-82
2022/08/09 11:01:30;;;;;;;1.65;0.35;;;;;;;22.04;54.03;101862.44;5060823;28;20103;-82
2022/08/09 11:04:08;;;;;;;1.23;0.32;;;;;;;22.08;52.91;101861.03;5048655;28;20043;-82
2022/08/09 11:06:36;;;;;;;1.10;0.35;;;;;;;22.17;53.20;101859.91;5048819;28;20037;-82
2022/08/09 11:09:07;;;;;;;1.67;0.20;;;;;;;22.29;52.58;101857.59;5057680;28;20511;-82
2022/08/09 11:11:56;;;;;;;2.60;0.50;;;;;;;22.35;50.89;101850.59;5051507;28;20033;-82
2022/08/09 11:14:55;;;;;;;2.15;0.73;;;;;;;22.46;51.14;101859.22;5046701;28;20045;-84
2022/08/09 11:17:21;;;;;;;2.63;0.40;;;;;;;22.50;51.46;101860.53;5051824;28;20036;-84
2022/08/09 11:19:49;;;;;;;1.25;0.57;;;;;;;22.57;50.81;101855.22;5048506;28;20513;-83
2022/08/09 11:22:16;;;;;;;3.08;0.65;;;;;;;22.64;50.90;101857.00;5033990;28;20045;-84
2022/08/09 11:25:03;;;;;;;2.25;0.30;;;;;;;22.72;49.54;101860.56;5058082;28;20056;-84
2022/08/09 11:27:50;;;;;;;4.22;0.35;;;;;;;22.84;49.11;101855.53;5074809;28;20044;-82
2022/08/09 11:30:22;;;;;;;2.75;0.52;;;;;;;22.96;49.66;101853.97;5046656;28;20037;-81